sensor_id;sensor_type;location;lat;lon;timestamp;temperature;humidity
65582;DHT22;52231;40.090;18.348;2023-02-13T00:01:24;5.20;81.10
65582;DHT22;52231;40.090;18.348;2023-02-13T00:03:53;5.20;81.20
65582;DHT22;52231;40.090;18.348;2023-02-13T00:06:22;5.10;81.20
65582;DHT22;52231;40.090;18.348;2023-02-13T00:08:50;5.20;81.30
65582;DHT22;52231;40.090;18.348;2023-02-13T00:11:18;5.10;81.30
65582;DHT22;52231;40.090;18.348;2023-02-13T00:13:47;5.10;81.20
65582;DHT22;52231;40.090;18.348;2023-02-13T00:16:15;5.10;81.20
65582;DHT22;52231;40.090;18.348;2023-02-13T00:18:44;5.20;81.20
65582;DHT22;52231;40.090;18.348;2023-02-13T00:21:13;5.20;81.10
65582;DHT22;52231;40.090;18.348;2023-02-13T00:23:41;5.30;81.10
65582;DHT22;52231;40.090;18.348;2023-02-13T00:26:12;5.30;81.00
65582;DHT22;52231;40.090;18.348;2023-02-13T00:28:45;5.40;80.70
65582;DHT22;52231;40.090;18.348;2023-02-13T00:31:16;5.50;80.50
65582;DHT22;52231;40.090;18.348;2023-02-13T00:33:45;5.60;80.20
65582;DHT22;52231;40.090;18.348;2023-02-13T00:36:16;5.70;79.90
65582;DHT22;52231;40.090;18.348;2023-02-13T00:38:45;5.70;79.80
65582;DHT22;52231;40.090;18.348;2023-02-13T00:41:14;5.70;79.70
65582;DHT22;52231;40.090;18.348;2023-02-13T00:43:45;5.60;79.70
65582;DHT22;52231;40.090;18.348;2023-02-13T00:46:14;5.60;79.70
65582;DHT22;52231;40.090;18.348;2023-02-13T00:48:43;5.50;79.90
65582;DHT22;52231;40.090;18.348;2023-02-13T00:51:13;5.50;80.10
65582;DHT22;52231;40.090;18.348;2023-02-13T00:53:41;5.50;80.10
65582;DHT22;52231;40.090;18.348;2023-02-13T00:56:10;5.50;80.10
65582;DHT22;52231;40.090;18.348;2023-02-13T00:58:38;5.60;80.00
65582;DHT22;52231;40.090;18.348;2023-02-13T01:01:06;5.60;79.90
65582;DHT22;52231;40.090;18.348;2023-02-13T01:03:35;5.60;79.90
65582;DHT22;52231;40.090;18.348;2023-02-13T01:06:03;5.60;79.90
65582;DHT22;52231;40.090;18.348;2023-02-13T01:08:33;5.70;79.90
65582;DHT22;52231;40.090;18.348;2023-02-13T01:11:01;5.70;79.90
65582;DHT22;52231;40.090;18.348;2023-02-13T01:13:29;5.80;79.90
65582;DHT22;52231;40.090;18.348;2023-02-13T01:15:57;5.90;79.90
65582;DHT22;52231;40.090;18.348;2023-02-13T01:18:28;6.00;80.30
65582;DHT22;52231;40.090;18.348;2023-02-13T01:21:03;6.20;83.60
65582;DHT22;52231;40.090;18.348;2023-02-13T01:23:38;6.50;85.50
65582;DHT22;52231;40.090;18.348;2023-02-13T01:26:23;6.60;86.20
65582;DHT22;52231;40.090;18.348;2023-02-13T01:28:58;6.80;86.90
65582;DHT22;52231;40.090;18.348;2023-02-13T01:31:39;7.00;87.10
65582;DHT22;52231;40.090;18.348;2023-02-13T01:34:07;7.10;87.30
65582;DHT22;52231;40.090;18.348;2023-02-13T01:36:40;7.20;87.40
65582;DHT22;52231;40.090;18.348;2023-02-13T01:39:14;7.20;87.60
65582;DHT22;52231;40.090;18.348;2023-02-13T01:41:43;7.00;87.60
65582;DHT22;52231;40.090;18.348;2023-02-13T01:44:47;7.00;87.70
65582;DHT22;52231;40.090;18.348;2023-02-13T01:50:11;6.80;87.80
65582;DHT22;52231;40.090;18.348;2023-02-13T01:52:43;6.80;87.90
65582;DHT22;52231;40.090;18.348;2023-02-13T01:55:13;6.80;87.90
65582;DHT22;52231;40.090;18.348;2023-02-13T01:57:46;6.70;88.00
65582;DHT22;52231;40.090;18.348;2023-02-13T02:00:17;6.70;88.10
65582;DHT22;52231;40.090;18.348;2023-02-13T02:03:14;6.70;88.20
65582;DHT22;52231;40.090;18.348;2023-02-13T02:05:45;6.60;88.30
65582;DHT22;52231;40.090;18.348;2023-02-13T02:08:14;6.60;88.40
65582;DHT22;52231;40.090;18.348;2023-02-13T02:10:43;6.50;88.50
65582;DHT22;52231;40.090;18.348;2023-02-13T02:13:14;6.40;88.60
65582;DHT22;52231;40.090;18.348;2023-02-13T02:15:47;6.30;88.60
65582;DHT22;52231;40.090;18.348;2023-02-13T02:18:21;6.30;88.60
65582;DHT22;52231;40.090;18.348;2023-02-13T02:43:52;5.80;89.20
65582;DHT22;52231;40.090;18.348;2023-02-13T02:46:30;5.80;89.30
65582;DHT22;52231;40.090;18.348;2023-02-13T02:49:04;5.80;89.40
65582;DHT22;52231;40.090;18.348;2023-02-13T02:52:08;5.70;89.40
65582;DHT22;52231;40.090;18.348;2023-02-13T02:54:48;5.70;89.50
65582;DHT22;52231;40.090;18.348;2023-02-13T02:57:49;5.60;89.50
65582;DHT22;52231;40.090;18.348;2023-02-13T03:00:40;5.60;89.60
65582;DHT22;52231;40.090;18.348;2023-02-13T03:03:28;5.60;89.60
65582;DHT22;52231;40.090;18.348;2023-02-13T03:06:26;5.60;89.60
65582;DHT22;52231;40.090;18.348;2023-02-13T03:09:00;5.70;89.70
65582;DHT22;52231;40.090;18.348;2023-02-13T03:11:50;5.70;89.70
65582;DHT22;52231;40.090;18.348;2023-02-13T03:14:38;5.70;89.80
65582;DHT22;52231;40.090;18.348;2023-02-13T03:17:10;5.70;89.90
65582;DHT22;52231;40.090;18.348;2023-02-13T03:20:11;5.70;89.90
65582;DHT22;52231;40.090;18.348;2023-02-13T03:25:51;5.70;90.00
65582;DHT22;52231;40.090;18.348;2023-02-13T03:28:41;5.60;90.00
65582;DHT22;52231;40.090;18.348;2023-02-13T03:34:16;5.60;90.10
65582;DHT22;52231;40.090;18.348;2023-02-13T03:36:54;5.60;90.10
65582;DHT22;52231;40.090;18.348;2023-02-13T03:42:45;5.70;90.10
65582;DHT22;52231;40.090;18.348;2023-02-13T03:45:26;5.70;90.10
65582;DHT22;52231;40.090;18.348;2023-02-13T03:48:18;5.70;90.10
65582;DHT22;52231;40.090;18.348;2023-02-13T03:51:08;5.70;90.20
65582;DHT22;52231;40.090;18.348;2023-02-13T03:53:38;5.70;90.20
65582;DHT22;52231;40.090;18.348;2023-02-13T03:56:10;5.70;90.20
65582;DHT22;52231;40.090;18.348;2023-02-13T03:58:59;5.70;90.20
65582;DHT22;52231;40.090;18.348;2023-02-13T04:02:11;5.70;90.30
65582;DHT22;52231;40.090;18.348;2023-02-13T04:05:08;5.60;90.30
65582;DHT22;52231;40.090;18.348;2023-02-13T04:07:41;5.60;90.30
65582;DHT22;52231;40.090;18.348;2023-02-13T04:10:14;5.50;90.30
65582;DHT22;52231;40.090;18.348;2023-02-13T04:15:41;5.50;90.30
65582;DHT22;52231;40.090;18.348;2023-02-13T04:18:30;5.40;90.40
65582;DHT22;52231;40.090;18.348;2023-02-13T04:21:06;5.40;90.40
65582;DHT22;52231;40.090;18.348;2023-02-13T04:23:34;5.40;90.40
65582;DHT22;52231;40.090;18.348;2023-02-13T04:26:05;5.40;90.50
65582;DHT22;52231;40.090;18.348;2023-02-13T04:28:34;5.50;90.50
65582;DHT22;52231;40.090;18.348;2023-02-13T04:31:03;5.50;90.50
65582;DHT22;52231;40.090;18.348;2023-02-13T04:33:31;5.40;90.50
65582;DHT22;52231;40.090;18.348;2023-02-13T04:35:59;5.40;90.50
65582;DHT22;52231;40.090;18.348;2023-02-13T04:38:27;5.40;90.50
65582;DHT22;52231;40.090;18.348;2023-02-13T04:40:55;5.30;90.50
65582;DHT22;52231;40.090;18.348;2023-02-13T04:43:24;5.30;90.50
65582;DHT22;52231;40.090;18.348;2023-02-13T04:45:52;5.30;90.60
65582;DHT22;52231;40.090;18.348;2023-02-13T04:48:20;5.30;90.60
65582;DHT22;52231;40.090;18.348;2023-02-13T04:50:48;5.20;90.60
65582;DHT22;52231;40.090;18.348;2023-02-13T04:53:17;5.20;90.60
65582;DHT22;52231;40.090;18.348;2023-02-13T04:55:45;5.10;90.60
65582;DHT22;52231;40.090;18.348;2023-02-13T04:58:13;5.00;90.60
65582;DHT22;52231;40.090;18.348;2023-02-13T05:00:41;5.00;90.60
65582;DHT22;52231;40.090;18.348;2023-02-13T05:03:12;5.00;90.60
65582;DHT22;52231;40.090;18.348;2023-02-13T05:05:40;4.90;90.60
65582;DHT22;52231;40.090;18.348;2023-02-13T05:08:08;4.90;90.60
65582;DHT22;52231;40.090;18.348;2023-02-13T05:10:37;4.90;90.60
65582;DHT22;52231;40.090;18.348;2023-02-13T05:13:05;4.80;90.60
65582;DHT22;52231;40.090;18.348;2023-02-13T05:15:33;4.70;90.60
65582;DHT22;52231;40.090;18.348;2023-02-13T05:18:01;4.70;90.70
65582;DHT22;52231;40.090;18.348;2023-02-13T05:20:29;4.60;90.70
65582;DHT22;52231;40.090;18.348;2023-02-13T05:22:58;4.50;90.70
65582;DHT22;52231;40.090;18.348;2023-02-13T05:25:45;4.50;90.70
65582;DHT22;52231;40.090;18.348;2023-02-13T05:28:13;4.50;90.70
65582;DHT22;52231;40.090;18.348;2023-02-13T05:31:00;4.40;90.80
65582;DHT22;52231;40.090;18.348;2023-02-13T05:33:29;4.40;90.80
65582;DHT22;52231;40.090;18.348;2023-02-13T05:35:57;4.40;90.90
65582;DHT22;52231;40.090;18.348;2023-02-13T05:38:25;4.40;90.80
65582;DHT22;52231;40.090;18.348;2023-02-13T05:40:54;4.40;90.80
65582;DHT22;52231;40.090;18.348;2023-02-13T05:43:22;4.30;90.80
65582;DHT22;52231;40.090;18.348;2023-02-13T05:45:51;4.30;90.80
65582;DHT22;52231;40.090;18.348;2023-02-13T05:48:27;4.30;90.90
65582;DHT22;52231;40.090;18.348;2023-02-13T05:50:55;4.30;90.90
65582;DHT22;52231;40.090;18.348;2023-02-13T05:53:24;4.30;90.90
65582;DHT22;52231;40.090;18.348;2023-02-13T05:55:52;4.30;90.90
65582;DHT22;52231;40.090;18.348;2023-02-13T05:58:21;4.40;90.90
65582;DHT22;52231;40.090;18.348;2023-02-13T06:00:49;4.50;91.00
65582;DHT22;52231;40.090;18.348;2023-02-13T06:03:17;4.50;91.00
65582;DHT22;52231;40.090;18.348;2023-02-13T06:05:46;4.60;91.00
65582;DHT22;52231;40.090;18.348;2023-02-13T06:08:14;4.70;91.00
65582;DHT22;52231;40.090;18.348;2023-02-13T06:10:43;4.70;91.00
65582;DHT22;52231;40.090;18.348;2023-02-13T06:13:11;4.80;91.00
65582;DHT22;52231;40.090;18.348;2023-02-13T06:15:40;4.90;91.00
65582;DHT22;52231;40.090;18.348;2023-02-13T06:18:09;5.10;91.00
65582;DHT22;52231;40.090;18.348;2023-02-13T06:20:37;5.40;91.10
65582;DHT22;52231;40.090;18.348;2023-02-13T06:23:05;5.70;91.10
65582;DHT22;52231;40.090;18.348;2023-02-13T06:25:34;6.10;91.10
65582;DHT22;52231;40.090;18.348;2023-02-13T06:28:04;6.40;91.20
65582;DHT22;52231;40.090;18.348;2023-02-13T06:30:32;6.80;91.20
65582;DHT22;52231;40.090;18.348;2023-02-13T06:33:01;7.10;91.20
65582;DHT22;52231;40.090;18.348;2023-02-13T06:35:29;7.40;91.30
65582;DHT22;52231;40.090;18.348;2023-02-13T06:37:58;7.70;91.30
65582;DHT22;52231;40.090;18.348;2023-02-13T06:40:26;7.90;91.30
65582;DHT22;52231;40.090;18.348;2023-02-13T06:42:54;8.20;91.40
65582;DHT22;52231;40.090;18.348;2023-02-13T06:45:22;8.40;91.40
65582;DHT22;52231;40.090;18.348;2023-02-13T06:47:50;8.70;91.50
65582;DHT22;52231;40.090;18.348;2023-02-13T06:50:18;8.80;91.50
65582;DHT22;52231;40.090;18.348;2023-02-13T06:52:49;8.90;91.50
65582;DHT22;52231;40.090;18.348;2023-02-13T06:55:18;8.90;91.50
65582;DHT22;52231;40.090;18.348;2023-02-13T06:57:47;9.10;91.60
65582;DHT22;52231;40.090;18.348;2023-02-13T07:00:17;9.00;91.50
65582;DHT22;52231;40.090;18.348;2023-02-13T07:02:46;8.90;91.30
65582;DHT22;52231;40.090;18.348;2023-02-13T07:05:14;8.80;91.20
65582;DHT22;52231;40.090;18.348;2023-02-13T07:07:43;9.10;90.90
65582;DHT22;52231;40.090;18.348;2023-02-13T07:10:12;9.30;90.60
65582;DHT22;52231;40.090;18.348;2023-02-13T07:12:40;9.60;90.20
65582;DHT22;52231;40.090;18.348;2023-02-13T07:15:09;9.70;89.50
65582;DHT22;52231;40.090;18.348;2023-02-13T07:17:37;9.70;89.00
65582;DHT22;52231;40.090;18.348;2023-02-13T07:20:06;9.90;88.30
65582;DHT22;52231;40.090;18.348;2023-02-13T07:22:35;10.20;87.90
65582;DHT22;52231;40.090;18.348;2023-02-13T07:25:04;10.50;87.20
65582;DHT22;52231;40.090;18.348;2023-02-13T07:27:32;10.70;85.90
65582;DHT22;52231;40.090;18.348;2023-02-13T07:30:01;10.90;84.70
65582;DHT22;52231;40.090;18.348;2023-02-13T07:32:29;11.20;83.40
65582;DHT22;52231;40.090;18.348;2023-02-13T07:34:57;11.30;81.50
65582;DHT22;52231;40.090;18.348;2023-02-13T07:37:30;11.30;80.30
65582;DHT22;52231;40.090;18.348;2023-02-13T07:39:58;11.60;80.40
65582;DHT22;52231;40.090;18.348;2023-02-13T07:42:26;11.70;78.50
65582;DHT22;52231;40.090;18.348;2023-02-13T07:44:54;11.80;78.10
65582;DHT22;52231;40.090;18.348;2023-02-13T07:47:23;11.90;78.40
65582;DHT22;52231;40.090;18.348;2023-02-13T07:49:51;12.20;77.20
65582;DHT22;52231;40.090;18.348;2023-02-13T07:52:19;12.30;76.40
65582;DHT22;52231;40.090;18.348;2023-02-13T07:54:47;12.40;75.50
65582;DHT22;52231;40.090;18.348;2023-02-13T07:57:16;12.60;75.00
65582;DHT22;52231;40.090;18.348;2023-02-13T07:59:44;12.80;74.80
65582;DHT22;52231;40.090;18.348;2023-02-13T08:02:14;13.00;74.00
65582;DHT22;52231;40.090;18.348;2023-02-13T08:04:43;13.00;73.40
65582;DHT22;52231;40.090;18.348;2023-02-13T08:07:15;12.90;74.20
65582;DHT22;52231;40.090;18.348;2023-02-13T08:09:44;12.90;73.70
65582;DHT22;52231;40.090;18.348;2023-02-13T08:12:31;12.90;74.30
65582;DHT22;52231;40.090;18.348;2023-02-13T08:15:02;13.00;73.70
65582;DHT22;52231;40.090;18.348;2023-02-13T08:17:30;13.00;72.60
65582;DHT22;52231;40.090;18.348;2023-02-13T08:19:59;12.90;70.90
65582;DHT22;52231;40.090;18.348;2023-02-13T08:22:27;12.90;72.40
65582;DHT22;52231;40.090;18.348;2023-02-13T08:24:55;12.90;71.90
65582;DHT22;52231;40.090;18.348;2023-02-13T08:27:23;12.90;72.00
65582;DHT22;52231;40.090;18.348;2023-02-13T08:29:52;12.80;72.10
65582;DHT22;52231;40.090;18.348;2023-02-13T08:32:20;12.80;72.70
65582;DHT22;52231;40.090;18.348;2023-02-13T08:34:48;13.10;71.40
65582;DHT22;52231;40.090;18.348;2023-02-13T08:37:16;13.40;69.70
65582;DHT22;52231;40.090;18.348;2023-02-13T08:39:45;13.80;68.50
65582;DHT22;52231;40.090;18.348;2023-02-13T08:42:13;14.20;67.70
65582;DHT22;52231;40.090;18.348;2023-02-13T08:44:41;14.40;65.40
65582;DHT22;52231;40.090;18.348;2023-02-13T08:47:09;14.70;63.10
65582;DHT22;52231;40.090;18.348;2023-02-13T08:49:38;14.80;62.00
65582;DHT22;52231;40.090;18.348;2023-02-13T08:52:06;15.00;61.70
65582;DHT22;52231;40.090;18.348;2023-02-13T08:54:34;15.10;58.30
65582;DHT22;52231;40.090;18.348;2023-02-13T08:57:03;15.20;59.30
65582;DHT22;52231;40.090;18.348;2023-02-13T08:59:31;15.20;59.40
65582;DHT22;52231;40.090;18.348;2023-02-13T09:01:59;15.20;58.30
65582;DHT22;52231;40.090;18.348;2023-02-13T09:04:27;15.30;59.40
65582;DHT22;52231;40.090;18.348;2023-02-13T09:06:56;15.30;57.40
65582;DHT22;52231;40.090;18.348;2023-02-13T09:09:24;15.30;57.60
65582;DHT22;52231;40.090;18.348;2023-02-13T09:11:53;15.30;58.70
65582;DHT22;52231;40.090;18.348;2023-02-13T09:14:24;15.40;58.60
65582;DHT22;52231;40.090;18.348;2023-02-13T09:16:52;15.40;59.00
65582;DHT22;52231;40.090;18.348;2023-02-13T09:19:20;15.40;58.80
65582;DHT22;52231;40.090;18.348;2023-02-13T09:21:48;15.30;58.60
65582;DHT22;52231;40.090;18.348;2023-02-13T09:24:17;15.20;55.80
65582;DHT22;52231;40.090;18.348;2023-02-13T09:26:45;15.10;56.60
65582;DHT22;52231;40.090;18.348;2023-02-13T09:29:13;15.00;57.20
65582;DHT22;52231;40.090;18.348;2023-02-13T09:31:41;14.80;58.80
65582;DHT22;52231;40.090;18.348;2023-02-13T09:34:10;14.70;58.10
65582;DHT22;52231;40.090;18.348;2023-02-13T09:36:38;14.40;57.00
65582;DHT22;52231;40.090;18.348;2023-02-13T09:39:06;14.10;58.30
65582;DHT22;52231;40.090;18.348;2023-02-13T09:41:44;13.90;59.70
65582;DHT22;52231;40.090;18.348;2023-02-13T09:52:34;13.30;63.20
65582;DHT22;52231;40.090;18.348;2023-02-13T09:55:16;13.20;63.70
65582;DHT22;52231;40.090;18.348;2023-02-13T10:00:47;13.00;64.50
65582;DHT22;52231;40.090;18.348;2023-02-13T10:06:27;12.90;64.80
65582;DHT22;52231;40.090;18.348;2023-02-13T10:09:19;12.90;66.40
65582;DHT22;52231;40.090;18.348;2023-02-13T10:12:19;12.90;66.90
65582;DHT22;52231;40.090;18.348;2023-02-13T10:15:16;12.80;67.30
65582;DHT22;52231;40.090;18.348;2023-02-13T10:17:49;12.90;67.80
65582;DHT22;52231;40.090;18.348;2023-02-13T10:20:38;13.10;66.50
65582;DHT22;52231;40.090;18.348;2023-02-13T10:26:50;13.60;67.00
65582;DHT22;52231;40.090;18.348;2023-02-13T10:29:25;13.90;64.90
65582;DHT22;52231;40.090;18.348;2023-02-13T10:32:18;14.30;64.70
65582;DHT22;52231;40.090;18.348;2023-02-13T10:34:51;14.60;64.20
65582;DHT22;52231;40.090;18.348;2023-02-13T10:37:21;15.00;63.30
65582;DHT22;52231;40.090;18.348;2023-02-13T10:39:51;15.30;62.00
65582;DHT22;52231;40.090;18.348;2023-02-13T10:42:36;15.60;61.60
65582;DHT22;52231;40.090;18.348;2023-02-13T10:45:34;15.80;57.30
65582;DHT22;52231;40.090;18.348;2023-02-13T10:51:04;16.50;57.00
65582;DHT22;52231;40.090;18.348;2023-02-13T10:57:29;18.00;52.90
65582;DHT22;52231;40.090;18.348;2023-02-13T11:02:28;18.00;46.50
65582;DHT22;52231;40.090;18.348;2023-02-13T11:05:04;17.80;47.20
65582;DHT22;52231;40.090;18.348;2023-02-13T11:07:38;17.60;47.30
65582;DHT22;52231;40.090;18.348;2023-02-13T11:10:18;17.80;48.80
65582;DHT22;52231;40.090;18.348;2023-02-13T11:12:47;17.80;46.60
65582;DHT22;52231;40.090;18.348;2023-02-13T11:15:27;17.70;45.90
65582;DHT22;52231;40.090;18.348;2023-02-13T11:18:10;17.60;46.10
65582;DHT22;52231;40.090;18.348;2023-02-13T11:20:42;17.90;45.20
65582;DHT22;52231;40.090;18.348;2023-02-13T11:26:07;17.50;45.60
65582;DHT22;52231;40.090;18.348;2023-02-13T11:28:59;17.30;46.50
65582;DHT22;52231;40.090;18.348;2023-02-13T11:31:32;17.10;46.20
65582;DHT22;52231;40.090;18.348;2023-02-13T11:39:43;17.00;48.10
65582;DHT22;52231;40.090;18.348;2023-02-13T11:42:27;16.80;48.50
65582;DHT22;52231;40.090;18.348;2023-02-13T11:47:41;16.10;49.70
65582;DHT22;52231;40.090;18.348;2023-02-13T11:50:21;15.80;50.50
65582;DHT22;52231;40.090;18.348;2023-02-13T11:53:00;15.40;51.20
65582;DHT22;52231;40.090;18.348;2023-02-13T11:55:35;15.10;52.00
65582;DHT22;52231;40.090;18.348;2023-02-13T12:00:41;14.60;53.70
65582;DHT22;52231;40.090;18.348;2023-02-13T12:03:28;14.30;55.80
65582;DHT22;52231;40.090;18.348;2023-02-13T12:06:17;14.00;57.40
65582;DHT22;52231;40.090;18.348;2023-02-13T12:08:47;14.00;58.00
65582;DHT22;52231;40.090;18.348;2023-02-13T12:11:26;14.00;57.60
65582;DHT22;52231;40.090;18.348;2023-02-13T12:13:57;14.10;57.60
65582;DHT22;52231;40.090;18.348;2023-02-13T12:16:44;14.40;57.60
65582;DHT22;52231;40.090;18.348;2023-02-13T12:19:18;14.70;57.10
65582;DHT22;52231;40.090;18.348;2023-02-13T12:32:39;14.40;56.10
65582;DHT22;52231;40.090;18.348;2023-02-13T12:41:13;14.00;58.40
65582;DHT22;52231;40.090;18.348;2023-02-13T12:50:11;14.50;56.50
65582;DHT22;52231;40.090;18.348;2023-02-13T12:55:21;14.60;56.20
65582;DHT22;52231;40.090;18.348;2023-02-13T13:06:17;14.20;56.00
65582;DHT22;52231;40.090;18.348;2023-02-13T13:08:56;14.10;55.20
65582;DHT22;52231;40.090;18.348;2023-02-13T13:14:40;14.20;54.60
65582;DHT22;52231;40.090;18.348;2023-02-13T13:17:31;14.40;53.70
65582;DHT22;52231;40.090;18.348;2023-02-13T13:20:21;15.10;52.90
65582;DHT22;52231;40.090;18.348;2023-02-13T13:22:53;15.20;50.50
65582;DHT22;52231;40.090;18.348;2023-02-13T13:31:25;14.30;52.50
65582;DHT22;52231;40.090;18.348;2023-02-13T13:33:59;14.20;51.60
65582;DHT22;52231;40.090;18.348;2023-02-13T13:49:55;13.80;51.50
65582;DHT22;52231;40.090;18.348;2023-02-13T13:52:29;13.80;51.70
65582;DHT22;52231;40.090;18.348;2023-02-13T13:54:59;13.70;53.40
65582;DHT22;52231;40.090;18.348;2023-02-13T14:02:46;13.40;54.50
65582;DHT22;52231;40.090;18.348;2023-02-13T14:05:32;13.30;53.90
65582;DHT22;52231;40.090;18.348;2023-02-13T14:08:36;13.10;54.70
65582;DHT22;52231;40.090;18.348;2023-02-13T14:11:01;13.00;55.20
65582;DHT22;52231;40.090;18.348;2023-02-13T14:13:32;13.10;56.20
65582;DHT22;52231;40.090;18.348;2023-02-13T14:16:02;13.00;55.30
65582;DHT22;52231;40.090;18.348;2023-02-13T14:18:31;12.90;55.20
65582;DHT22;52231;40.090;18.348;2023-02-13T14:21:03;12.90;55.40
65582;DHT22;52231;40.090;18.348;2023-02-13T14:23:46;12.70;56.10
65582;DHT22;52231;40.090;18.348;2023-02-13T14:26:30;12.60;56.30
65582;DHT22;52231;40.090;18.348;2023-02-13T14:29:28;12.50;55.60
65582;DHT22;52231;40.090;18.348;2023-02-13T14:32:25;12.40;56.30
65582;DHT22;52231;40.090;18.348;2023-02-13T14:35:04;12.30;55.90
65582;DHT22;52231;40.090;18.348;2023-02-13T14:37:37;12.20;56.40
65582;DHT22;52231;40.090;18.348;2023-02-13T14:46:01;11.80;56.70
65582;DHT22;52231;40.090;18.348;2023-02-13T14:49:00;11.80;56.90
65582;DHT22;52231;40.090;18.348;2023-02-13T14:51:39;11.60;55.40
65582;DHT22;52231;40.090;18.348;2023-02-13T14:54:34;11.60;56.30
65582;DHT22;52231;40.090;18.348;2023-02-13T14:57:06;11.40;57.20
65582;DHT22;52231;40.090;18.348;2023-02-13T14:59:41;11.40;57.60
65582;DHT22;52231;40.090;18.348;2023-02-13T15:02:26;11.30;57.60
65582;DHT22;52231;40.090;18.348;2023-02-13T15:05:02;11.20;58.00
65582;DHT22;52231;40.090;18.348;2023-02-13T15:07:36;11.10;58.10
65582;DHT22;52231;40.090;18.348;2023-02-13T15:10:28;11.00;58.10
65582;DHT22;52231;40.090;18.348;2023-02-13T15:13:02;10.90;58.60
65582;DHT22;52231;40.090;18.348;2023-02-13T15:15:33;10.80;59.20
65582;DHT22;52231;40.090;18.348;2023-02-13T15:18:24;10.80;60.60
65582;DHT22;52231;40.090;18.348;2023-02-13T15:20:55;10.70;60.60
65582;DHT22;52231;40.090;18.348;2023-02-13T15:23:29;10.60;61.10
65582;DHT22;52231;40.090;18.348;2023-02-13T15:26:04;10.50;61.30
65582;DHT22;52231;40.090;18.348;2023-02-13T15:28:34;10.50;60.80
65582;DHT22;52231;40.090;18.348;2023-02-13T15:31:05;10.40;60.60
65582;DHT22;52231;40.090;18.348;2023-02-13T15:33:46;10.30;60.30
65582;DHT22;52231;40.090;18.348;2023-02-13T15:36:20;10.20;60.60
65582;DHT22;52231;40.090;18.348;2023-02-13T15:38:55;10.10;60.30
65582;DHT22;52231;40.090;18.348;2023-02-13T15:41:31;10.10;60.50
65582;DHT22;52231;40.090;18.348;2023-02-13T15:44:00;10.00;60.80
65582;DHT22;52231;40.090;18.348;2023-02-13T15:46:35;9.90;61.00
65582;DHT22;52231;40.090;18.348;2023-02-13T15:49:16;9.80;62.00
65582;DHT22;52231;40.090;18.348;2023-02-13T15:51:45;9.80;62.30
65582;DHT22;52231;40.090;18.348;2023-02-13T15:54:24;9.70;62.70
65582;DHT22;52231;40.090;18.348;2023-02-13T15:56:55;9.60;62.90
65582;DHT22;52231;40.090;18.348;2023-02-13T15:59:28;9.50;62.60
65582;DHT22;52231;40.090;18.348;2023-02-13T16:01:59;9.50;63.60
65582;DHT22;52231;40.090;18.348;2023-02-13T16:04:28;9.30;64.10
65582;DHT22;52231;40.090;18.348;2023-02-13T16:06:57;9.30;64.20
65582;DHT22;52231;40.090;18.348;2023-02-13T16:09:32;9.20;64.50
65582;DHT22;52231;40.090;18.348;2023-02-13T16:12:23;9.10;64.70
65582;DHT22;52231;40.090;18.348;2023-02-13T16:15:01;9.00;65.00
65582;DHT22;52231;40.090;18.348;2023-02-13T16:17:37;8.90;65.30
65582;DHT22;52231;40.090;18.348;2023-02-13T16:20:07;8.80;65.80
65582;DHT22;52231;40.090;18.348;2023-02-13T16:27:46;8.60;67.30
65582;DHT22;52231;40.090;18.348;2023-02-13T16:30:40;8.50;67.70
65582;DHT22;52231;40.090;18.348;2023-02-13T16:35:44;8.20;68.80
65582;DHT22;52231;40.090;18.348;2023-02-13T16:40:53;8.00;69.60
65582;DHT22;52231;40.090;18.348;2023-02-13T16:43:51;8.00;69.80
65582;DHT22;52231;40.090;18.348;2023-02-13T16:54:34;7.70;71.20
65582;DHT22;52231;40.090;18.348;2023-02-13T16:57:33;7.60;71.60
65582;DHT22;52231;40.090;18.348;2023-02-13T17:00:04;7.50;71.90
65582;DHT22;52231;40.090;18.348;2023-02-13T17:02:37;7.40;72.30
65582;DHT22;52231;40.090;18.348;2023-02-13T17:07:39;7.30;73.00
65582;DHT22;52231;40.090;18.348;2023-02-13T17:10:26;7.30;73.10
65582;DHT22;52231;40.090;18.348;2023-02-13T17:12:56;7.20;73.50
65582;DHT22;52231;40.090;18.348;2023-02-13T17:15:27;7.10;73.70
65582;DHT22;52231;40.090;18.348;2023-02-13T17:17:56;7.00;74.00
65582;DHT22;52231;40.090;18.348;2023-02-13T17:20:27;7.00;74.20
65582;DHT22;52231;40.090;18.348;2023-02-13T17:23:01;7.00;74.50
65582;DHT22;52231;40.090;18.348;2023-02-13T17:25:37;6.90;74.70
65582;DHT22;52231;40.090;18.348;2023-02-13T17:30:40;6.80;75.40
65582;DHT22;52231;40.090;18.348;2023-02-13T17:33:12;6.80;75.50
65582;DHT22;52231;40.090;18.348;2023-02-13T17:35:41;6.70;75.80
65582;DHT22;52231;40.090;18.348;2023-02-13T17:38:09;6.70;75.90
65582;DHT22;52231;40.090;18.348;2023-02-13T17:40:40;6.70;76.00
65582;DHT22;52231;40.090;18.348;2023-02-13T17:43:10;6.70;76.20
65582;DHT22;52231;40.090;18.348;2023-02-13T17:45:39;6.70;76.50
65582;DHT22;52231;40.090;18.348;2023-02-13T17:48:08;6.60;76.50
65582;DHT22;52231;40.090;18.348;2023-02-13T17:50:37;6.60;76.70
65582;DHT22;52231;40.090;18.348;2023-02-13T17:53:26;6.60;76.80
65582;DHT22;52231;40.090;18.348;2023-02-13T17:55:57;6.50;76.90
65582;DHT22;52231;40.090;18.348;2023-02-13T17:58:25;6.50;77.10
65582;DHT22;52231;40.090;18.348;2023-02-13T18:00:54;6.40;77.20
65582;DHT22;52231;40.090;18.348;2023-02-13T18:03:22;6.40;77.30
65582;DHT22;52231;40.090;18.348;2023-02-13T18:05:51;6.30;77.50
65582;DHT22;52231;40.090;18.348;2023-02-13T18:08:19;6.30;77.80
65582;DHT22;52231;40.090;18.348;2023-02-13T18:10:47;6.20;78.20
65582;DHT22;52231;40.090;18.348;2023-02-13T18:13:15;6.10;78.50
65582;DHT22;52231;40.090;18.348;2023-02-13T18:15:44;6.10;78.80
65582;DHT22;52231;40.090;18.348;2023-02-13T18:18:14;6.00;79.10
65582;DHT22;52231;40.090;18.348;2023-02-13T18:20:43;6.00;79.30
65582;DHT22;52231;40.090;18.348;2023-02-13T18:23:11;6.00;79.40
65582;DHT22;52231;40.090;18.348;2023-02-13T18:25:40;6.00;79.60
65582;DHT22;52231;40.090;18.348;2023-02-13T18:28:09;6.00;79.70
65582;DHT22;52231;40.090;18.348;2023-02-13T18:30:40;5.90;79.90
65582;DHT22;52231;40.090;18.348;2023-02-13T18:33:09;5.90;80.00
65582;DHT22;52231;40.090;18.348;2023-02-13T18:35:37;5.80;80.20
65582;DHT22;52231;40.090;18.348;2023-02-13T18:38:05;5.80;80.20
65582;DHT22;52231;40.090;18.348;2023-02-13T18:40:34;5.80;80.40
65582;DHT22;52231;40.090;18.348;2023-02-13T18:43:02;5.80;80.60
65582;DHT22;52231;40.090;18.348;2023-02-13T18:45:35;5.70;80.70
65582;DHT22;52231;40.090;18.348;2023-02-13T18:48:03;5.70;80.70
65582;DHT22;52231;40.090;18.348;2023-02-13T18:50:40;5.70;80.80
65582;DHT22;52231;40.090;18.348;2023-02-13T18:53:09;5.70;81.10
65582;DHT22;52231;40.090;18.348;2023-02-13T18:55:38;5.70;81.10